Time;durP1;ratioP1;P1;durP2;ratioP2;P2;SDS_P1;SDS_P2;PMS_P1;PMS_P2;Temp;Humidity;BMP_temperature;BMP_pressure;BME280_temperature;BME280_humidity;BME280_pressure;Samples;Min_cycle;Max_cycle;Signal;HPM_P1;HPM_P2
2023/01/15 00:01:37;;;;;;;;;48.67;40.33;;;;;8.56;77.44;99216.25;5087792;27;45922;-81
2023/01/15 00:04:05;;;;;;;;;54.33;42.00;;;;;8.57;77.43;99205.69;5094808;27;45385;-84
2023/01/15 00:06:34;;;;;;;;;51.33;42.67;;;;;8.55;77.73;99212.75;5095607;27;45603;-83
2023/01/15 00:09:00;;;;;;;;;55.00;43.00;;;;;8.53;77.96;99221.63;5103835;27;45587;-83
2023/01/15 00:11:25;;;;;;;;;49.67;39.33;;;;;8.54;78.00;99210.22;5096310;27;45420;-84
2023/01/15 00:13:51;;;;;;;;;53.00;41.33;;;;;8.55;78.31;99177.75;5095713;27;45430;-84
2023/01/15 00:16:22;;;;;;;;;50.67;42.67;;;;;8.56;77.93;99179.47;5111749;27;47004;-83
2023/01/15 00:18:52;;;;;;;;;44.00;36.33;;;;;8.56;77.64;99176.84;5094409;27;45326;-83
2023/01/15 00:21:18;;;;;;;;;40.00;35.33;;;;;8.55;77.70;99172.50;5095510;27;45345;-84
2023/01/15 00:29:15;;;;;;;;;51.00;40.00;;;;;8.59;78.23;99166.25;5084487;27;45378;-83
2023/01/15 00:31:42;;;;;;;;;51.33;40.00;;;;;8.61;77.69;99161.81;5074963;27;45515;-83
2023/01/15 00:34:07;;;;;;;;;48.00;39.67;;;;;8.61;78.04;99161.81;5095306;27;45348;-83
2023/01/15 00:36:33;;;;;;;;;51.33;39.33;;;;;8.59;78.10;99167.09;5091531;27;47287;-83
2023/01/15 00:39:02;;;;;;;;;49.67;42.00;;;;;8.61;77.66;99174.94;5109131;27;45432;-83
2023/01/15 00:41:27;;;;;;;;;47.00;40.00;;;;;8.58;77.48;99154.88;5095511;27;45318;-84
2023/01/15 00:43:53;;;;;;;;;48.67;39.67;;;;;8.58;77.75;99154.88;5095548;27;45267;-83
2023/01/15 00:46:18;;;;;;;;;50.00;43.00;;;;;8.58;77.95;99146.97;5095670;27;45919;-83
2023/01/15 00:48:44;;;;;;;;;52.67;39.00;;;;;8.55;78.07;99135.69;5080011;27;45278;-83
2023/01/15 00:51:09;;;;;;;;;49.00;40.33;;;;;8.55;78.14;99141.81;5093202;27;45481;-83
2023/01/15 00:53:35;;;;;;;;;43.67;39.00;;;;;8.55;77.99;99130.44;5087890;27;45445;-84
2023/01/15 00:56:00;;;;;;;;;47.67;38.67;;;;;8.55;78.30;99130.44;5095629;27;45557;-84
2023/01/15 00:58:25;;;;;;;;;48.67;38.67;;;;;8.55;77.99;99123.44;5095631;27;45374;-84
2023/01/15 01:00:59;;;;;;;;;50.33;38.33;;;;;8.53;77.90;99130.53;5084757;27;45549;-82
2023/01/15 01:03:25;;;;;;;;;45.33;35.33;;;;;8.53;78.16;99130.53;5092994;27;45432;-83
2023/01/15 01:05:50;;;;;;;;;43.67;38.33;;;;;8.53;78.16;99117.38;5094911;27;45499;-83
2023/01/15 01:08:16;;;;;;;;;51.00;40.33;;;;;8.54;78.11;99116.47;5097800;27;45453;-83
2023/01/15 01:10:42;;;;;;;;;41.67;36.67;;;;;8.53;78.23;99109.50;5115424;27;45464;-83
2023/01/15 01:13:08;;;;;;;;;43.00;37.00;;;;;8.54;78.14;99111.22;5094030;27;45546;-82
2023/01/15 01:15:35;;;;;;;;;49.33;38.67;;;;;8.55;78.23;99115.53;5090520;27;45432;-83
2023/01/15 01:18:00;;;;;;;;;51.00;40.67;;;;;8.53;78.30;99116.53;5079214;27;45381;-84
2023/01/15 01:20:26;;;;;;;;;44.67;37.67;;;;;8.52;78.71;99120.94;5090201;27;45360;-84
2023/01/15 01:22:52;;;;;;;;;43.00;38.00;;;;;8.53;78.20;99119.16;5080425;27;45838;-83
2023/01/15 01:25:18;;;;;;;;;50.67;40.33;;;;;8.54;77.86;99107.75;5105344;27;47379;-84
2023/01/15 01:27:44;;;;;;;;;40.00;35.67;;;;;8.55;77.83;99091.91;5078843;27;46049;-84
2023/01/15 01:30:11;;;;;;;;;44.33;38.33;;;;;8.57;77.93;99094.47;5094038;27;45408;-83
2023/01/15 01:32:37;;;;;;;;;47.33;38.67;;;;;8.57;78.04;99092.72;5098250;27;45395;-83
2023/01/15 01:35:02;;;;;;;;;40.67;37.67;;;;;8.57;77.67;99095.34;5079398;27;47801;-83
2023/01/15 01:37:28;;;;;;;;;44.00;37.33;;;;;8.59;77.96;99101.41;5098578;27;45528;-83
2023/01/15 01:39:54;;;;;;;;;39.00;35.67;;;;;8.58;77.90;99083.06;5096999;27;45923;-83
2023/01/15 01:42:20;;;;;;;;;32.67;31.00;;;;;8.57;77.14;99076.94;5079510;27;45650;-83
2023/01/15 01:44:45;;;;;;;;;33.67;31.33;;;;;8.56;77.30;99077.84;5098039;27;45476;-84
2023/01/15 01:47:21;;;;;;;;;42.00;37.00;;;;;8.55;77.72;99068.25;5096269;27;45333;-84
2023/01/15 01:49:51;;;;;;;;;34.67;31.00;;;;;8.58;77.46;99065.53;5095592;27;45477;-83
2023/01/15 01:52:22;;;;;;;;;38.67;34.33;;;;;8.59;77.79;99066.38;5097349;27;45431;-83
2023/01/15 01:54:48;;;;;;;;;53.00;39.33;;;;;8.61;77.18;99081.19;5079859;27;47036;-83
2023/01/15 01:57:15;;;;;;;;;38.67;35.33;;;;;8.63;77.03;99083.78;5080032;27;46021;-84
2023/01/15 01:59:41;;;;;;;;;35.33;34.00;;;;;8.66;77.00;99065.28;5096319;27;45477;-83
2023/01/15 02:02:07;;;;;;;;;36.00;34.00;;;;;8.69;76.91;99062.56;5094598;27;45344;-83
2023/01/15 02:04:34;;;;;;;;;37.33;34.00;;;;;8.71;76.73;99071.25;5073832;27;46955;-83
2023/01/15 02:07:02;;;;;;;;;39.33;36.00;;;;;8.71;76.69;99063.38;5096426;27;45412;-83
2023/01/15 02:09:27;;;;;;;;;34.33;31.00;;;;;8.70;76.49;99074.78;5076162;27;45456;-84
2023/01/15 02:11:57;;;;;;;;;34.67;31.00;;;;;8.71;76.57;99074.72;5093017;27;45306;-84
2023/01/15 02:14:30;;;;;;;;;33.33;30.00;;;;;8.71;76.94;99077.34;5096482;27;45454;-84
2023/01/15 02:17:01;;;;;;;;;33.67;32.33;;;;;8.67;77.11;99069.63;5097491;27;45234;-84
2023/01/15 02:19:42;;;;;;;;;34.00;34.00;;;;;8.67;77.52;99081.00;5077045;27;45497;-83
2023/01/15 02:22:30;;;;;;;;;40.33;36.00;;;;;8.65;77.84;99081.97;5086240;27;45481;-83
2023/01/15 02:25:33;;;;;;;;;38.67;35.00;;;;;8.62;78.30;99076.81;5105253;27;46246;-83
2023/01/15 02:28:32;;;;;;;;;26.67;24.33;;;;;8.58;77.32;99086.53;5080881;27;45413;-83
2023/01/15 02:31:08;;;;;;;;;39.33;34.00;;;;;8.48;77.41;99074.63;5085347;27;45324;-83
2023/01/15 02:33:45;;;;;;;;;35.00;32.67;;;;;8.39;77.41;99060.00;5075011;27;45609;-83
2023/01/15 02:36:15;;;;;;;;;40.67;34.00;;;;;8.34;77.63;99068.97;5069815;27;46751;-84
2023/01/15 02:38:48;;;;;;;;;37.67;35.33;;;;;8.36;77.66;99073.25;5097491;27;45507;-83
2023/01/15 02:41:16;;;;;;;;;25.67;25.33;;;;;8.38;77.31;99055.66;5103053;27;45356;-83
2023/01/15 02:43:46;;;;;;;;;34.00;30.67;;;;;8.42;77.69;99059.06;5103697;27;45457;-83
2023/01/15 02:46:15;;;;;;;;;33.00;30.67;;;;;8.45;77.72;99050.22;5080135;27;47728;-83
2023/01/15 02:48:44;;;;;;;;;34.00;30.67;;;;;8.49;78.05;99051.84;5093246;27;45455;-83
2023/01/15 02:51:17;;;;;;;;;37.00;33.33;;;;;8.52;78.37;99046.50;5091870;27;45619;-83
2023/01/15 02:53:47;;;;;;;;;26.67;23.67;;;;;8.55;78.36;99039.34;5081645;27;45378;-83
2023/01/15 02:56:18;;;;;;;;;33.00;31.00;;;;;8.57;78.53;99040.16;5096946;27;45420;-83
2023/01/15 02:58:46;;;;;;;;;31.67;30.00;;;;;8.58;78.09;99044.50;5075531;28;45361;-83
2023/01/15 03:01:39;;;;;;;;;35.33;31.33;;;;;8.60;78.82;99031.31;5094099;27;45392;-84
2023/01/15 03:04:23;;;;;;;;;30.67;29.67;;;;;8.60;78.78;99020.81;5093087;27;45393;-84
2023/01/15 03:06:58;;;;;;;;;34.00;31.00;;;;;8.57;79.02;99020.91;5097056;27;46390;-83
2023/01/15 03:09:25;;;;;;;;;44.33;34.00;;;;;8.56;79.35;99027.94;5096689;27;45351;-83
2023/01/15 03:12:13;;;;;;;;;30.33;30.00;;;;;8.52;79.76;99020.22;5097260;27;45305;-83
2023/01/15 03:15:01;;;;;;;;;47.00;38.67;;;;;8.48;80.19;99024.72;5081607;27;45333;-83
2023/01/15 03:17:38;;;;;;;;;41.00;34.00;;;;;8.46;80.39;99023.03;5078643;27;46907;-84
2023/01/15 03:20:28;;;;;;;;;32.67;21.67;;;;;8.45;80.70;99016.94;5090461;27;45423;-83
2023/01/15 03:22:59;;;;;;;;;30.67;30.67;;;;;8.45;80.85;99008.19;5064747;27;45489;-83
2023/01/15 03:25:33;;;;;;;;;41.67;36.67;;;;;8.44;81.19;99011.72;5097012;27;45498;-84
2023/01/15 03:28:02;;;;;;;;;43.00;36.33;;;;;8.43;81.11;99018.75;5086701;27;45294;-83
2023/01/15 03:30:28;;;;;;;;;42.00;37.00;;;;;8.40;80.99;99018.84;5097344;27;45348;-84
2023/01/15 03:32:53;;;;;;;;;40.00;34.33;;;;;8.40;80.90;99029.34;5104462;27;45542;-82
2023/01/15 03:35:43;;;;;;;;;47.33;38.00;;;;;8.39;81.22;99027.63;5093843;27;45495;-83
2023/01/15 03:38:13;;;;;;;;;45.33;37.33;;;;;8.35;81.47;99015.53;5096578;27;46383;-84
2023/01/15 03:40:57;;;;;;;;;47.33;37.00;;;;;8.34;81.41;99000.69;5096565;27;45350;-83
2023/01/15 03:43:40;;;;;;;;;47.33;37.00;;;;;8.34;81.25;98987.53;5084195;27;45584;-83
2023/01/15 03:46:13;;;;;;;;;48.00;38.67;;;;;8.32;80.87;98995.47;5096618;27;45326;-83
2023/01/15 03:48:50;;;;;;;;;51.00;41.67;;;;;8.32;80.88;98997.25;5087840;27;45475;-83
2023/01/15 03:51:59;;;;;;;;;51.00;39.67;;;;;8.29;80.98;98987.66;5095880;27;45478;-84
2023/01/15 03:54:38;;;;;;;;;43.67;36.67;;;;;8.28;80.84;98992.94;5068747;27;45712;-83
2023/01/15 03:57:13;;;;;;;;;43.00;36.00;;;;;8.25;81.00;98993.91;5085630;27;45479;-84
2023/01/15 03:59:48;;;;;;;;;42.67;37.33;;;;;8.25;81.00;98995.69;5094821;27;46260;-83
2023/01/15 04:02:17;;;;;;;;;41.33;35.33;;;;;8.27;81.24;98985.97;5075836;27;45818;-83
2023/01/15 04:04:44;;;;;;;;;48.67;38.00;;;;;8.28;81.44;98995.59;5090171;27;45352;-83
2023/01/15 04:07:11;;;;;;;;;48.67;37.67;;;;;8.25;81.11;98980.78;5092997;27;45253;-83
2023/01/15 04:09:38;;;;;;;;;41.33;36.00;;;;;8.24;81.53;98984.31;5110942;27;47699;-83
2023/01/15 04:12:04;;;;;;;;;42.67;36.67;;;;;8.23;81.63;98992.22;5095251;27;45382;-84
2023/01/15 04:14:30;;;;;;;;;45.67;38.00;;;;;8.25;81.38;98987.78;5094929;27;45467;-84
2023/01/15 04:16:55;;;;;;;;;44.00;37.33;;;;;8.24;81.77;98976.44;5090561;27;45446;-84
2023/01/15 04:19:21;;;;;;;;;45.00;38.67;;;;;8.26;81.40;98979.00;5088569;27;45480;-83
2023/01/15 04:21:46;;;;;;;;;42.67;36.67;;;;;8.25;81.61;98972.91;5075379;27;45569;-84
2023/01/15 04:24:12;;;;;;;;;37.00;34.00;;;;;8.25;81.64;98975.53;5095543;27;45922;-84
2023/01/15 04:26:37;;;;;;;;;35.67;32.33;;;;;8.26;81.30;98979.00;5096271;27;45438;-84
2023/01/15 04:29:02;;;;;;;;;39.00;33.00;;;;;8.26;81.30;98972.00;5088049;27;45526;-83
2023/01/15 04:31:28;;;;;;;;;40.33;34.00;;;;;8.29;81.35;98978.91;5094970;27;45379;-84
2023/01/15 04:33:53;;;;;;;;;42.33;35.00;;;;;8.28;81.17;98974.56;5093614;27;45422;-84
2023/01/15 04:36:18;;;;;;;;;33.67;32.33;;;;;8.24;81.12;98965.94;5091178;27;45470;-84
2023/01/15 04:38:44;;;;;;;;;43.67;35.33;;;;;8.25;81.06;98975.53;5093184;27;46782;-84
2023/01/15 04:44:05;;;;;;;;;32.67;29.00;;;;;8.25;81.21;98980.78;5091508;27;45344;-84
2023/01/15 04:46:43;;;;;;;;;36.33;31.00;;;;;8.25;80.15;98986.03;5095654;27;45368;-84
2023/01/15 04:49:12;;;;;;;;;40.33;36.33;;;;;8.21;80.47;98973.91;5095845;27;46556;-84
2023/01/15 04:51:38;;;;;;;;;38.67;33.33;;;;;8.10;80.96;98973.41;5095732;27;45530;-84
2023/01/15 04:54:05;;;;;;;;;33.00;32.67;;;;;8.01;81.82;98976.34;5090146;27;45515;-83
2023/01/15 04:56:30;;;;;;;;;40.33;37.33;;;;;7.90;81.91;98981.06;5094623;27;45576;-84
2023/01/15 04:58:59;;;;;;;;;40.33;34.33;;;;;7.82;81.99;98968.19;5093015;27;45472;-84
2023/01/15 05:01:24;;;;;;;;;37.67;34.33;;;;;7.78;82.51;98982.31;5095387;27;45198;-84
2023/01/15 05:03:50;;;;;;;;;34.33;28.33;;;;;7.73;82.28;98981.56;5096542;27;45610;-83
2023/01/15 05:06:17;;;;;;;;;32.67;24.33;;;;;7.70;81.91;98977.31;5094478;27;45317;-83
2023/01/15 05:08:43;;;;;;;;;29.00;26.33;;;;;7.70;81.63;98963.34;5082599;27;46420;-83
2023/01/15 05:11:08;;;;;;;;;34.33;30.00;;;;;7.72;82.52;98971.97;5094995;27;45378;-83
2023/01/15 05:13:34;;;;;;;;;31.00;24.67;;;;;7.74;81.72;98961.44;5072367;27;45590;-84
2023/01/15 05:16:17;;;;;;;;;34.67;27.67;;;;;7.75;81.99;98950.03;5095514;27;45491;-84
2023/01/15 05:18:43;;;;;;;;;39.67;34.33;;;;;7.77;81.94;98953.47;5087302;27;46045;-84
2023/01/15 05:21:17;;;;;;;;;33.00;30.67;;;;;7.78;82.17;98960.44;5095119;27;45445;-83
2023/01/15 05:23:43;;;;;;;;;32.00;28.67;;;;;7.78;81.97;98955.19;5092049;27;45415;-83
2023/01/15 05:26:09;;;;;;;;;34.67;30.67;;;;;7.78;82.12;98957.81;5094303;27;45645;-83
2023/01/15 05:28:34;;;;;;;;;32.67;30.00;;;;;7.76;81.74;98952.63;5099681;27;45928;-84
2023/01/15 05:31:11;;;;;;;;;36.67;30.67;;;;;7.75;81.88;98953.53;5095008;27;45423;-83
2023/01/15 05:33:38;;;;;;;;;32.00;26.00;;;;;7.77;82.10;98951.72;5076239;27;45376;-83
2023/01/15 05:36:06;;;;;;;;;28.67;25.00;;;;;7.78;82.55;98955.19;5095114;27;45356;-84
2023/01/15 05:38:32;;;;;;;;;34.00;27.67;;;;;7.79;82.16;98928.91;5076732;27;48496;-84
2023/01/15 05:40:57;;;;;;;;;22.67;21.33;;;;;7.82;82.23;98938.47;5099476;27;45391;-84
2023/01/15 05:43:23;;;;;;;;;27.00;26.33;;;;;7.83;82.64;98930.53;5097500;27;45391;-84
2023/01/15 05:45:48;;;;;;;;;30.00;27.67;;;;;7.83;82.63;98933.16;5078356;27;45565;-83
2023/01/15 05:48:13;;;;;;;;;33.67;28.00;;;;;7.84;83.00;98939.28;5076578;27;46999;-83
2023/01/15 05:50:39;;;;;;;;;30.67;27.33;;;;;7.86;82.67;98950.59;5094605;27;45486;-84
2023/01/15 05:53:05;;;;;;;;;29.33;26.33;;;;;7.86;82.80;98951.44;5095939;27;46053;-83
2023/01/15 05:55:31;;;;;;;;;32.33;25.33;;;;;7.87;82.67;98941.81;5098234;27;45444;-84
2023/01/15 05:57:57;;;;;;;;;32.33;28.67;;;;;7.85;82.61;98933.97;5079919;27;47349;-84
2023/01/15 06:00:23;;;;;;;;;30.67;25.33;;;;;7.88;82.92;98952.22;5098397;27;45424;-84
2023/01/15 06:02:49;;;;;;;;;32.00;26.00;;;;;7.85;81.96;98957.59;5079076;27;45486;-84
2023/01/15 06:05:18;;;;;;;;;28.33;28.33;;;;;7.81;82.21;98949.88;5085428;27;45475;-84
2023/01/15 06:07:48;;;;;;;;;28.33;27.33;;;;;7.79;82.18;98935.94;5095585;27;46309;-83
2023/01/15 06:10:15;;;;;;;;;32.33;31.33;;;;;7.75;82.12;98940.41;5097775;27;45304;-84
2023/01/15 06:12:41;;;;;;;;;32.33;25.67;;;;;7.72;82.55;98940.50;5079163;27;45313;-83
2023/01/15 06:15:08;;;;;;;;;26.67;25.67;;;;;7.72;82.33;98943.13;5097470;27;45427;-84
2023/01/15 06:17:34;;;;;;;;;27.33;25.00;;;;;7.70;82.29;98944.97;5105011;27;46205;-84
2023/01/15 06:19:59;;;;;;;;;33.00;30.67;;;;;7.66;82.70;98954.69;5097852;27;45297;-83
2023/01/15 06:22:24;;;;;;;;;32.33;28.67;;;;;7.62;82.90;98942.56;5097733;27;45321;-84
2023/01/15 06:24:50;;;;;;;;;32.00;29.67;;;;;7.55;82.73;98942.78;5098087;27;45472;-84
2023/01/15 06:27:15;;;;;;;;;31.67;28.67;;;;;7.50;83.42;98939.47;5079334;27;47401;-84
2023/01/15 06:29:41;;;;;;;;;29.00;27.33;;;;;7.45;83.80;98936.13;5084713;27;46492;-84
2023/01/15 06:32:06;;;;;;;;;23.67;20.00;;;;;7.43;83.52;98943.16;5054169;28;45687;-84
2023/01/15 06:34:31;;;;;;;;;29.33;26.00;;;;;7.42;83.95;98944.94;5045968;28;45376;-83
2023/01/15 06:36:57;;;;;;;;;24.67;19.67;;;;;7.40;83.76;98945.88;5069473;28;47019;-84
2023/01/15 06:39:22;;;;;;;;;27.67;26.67;;;;;7.38;83.90;98945.91;5049025;28;45308;-84
2023/01/15 06:47:21;;;;;;;;;27.67;27.67;;;;;7.27;84.16;98955.88;5053377;28;45317;-84
2023/01/15 06:49:56;;;;;;;;;21.00;18.00;;;;;7.23;83.89;98936.75;5068502;28;45773;-84
2023/01/15 06:52:23;;;;;;;;;27.00;24.33;;;;;7.25;83.95;98944.56;5069659;28;45232;-84
2023/01/15 06:54:48;;;;;;;;;26.00;23.33;;;;;7.27;83.88;98950.63;5055298;28;45858;-83
2023/01/15 06:57:14;;;;;;;;;26.33;22.67;;;;;7.28;83.92;98944.50;5048706;28;46587;-84
2023/01/15 06:59:39;;;;;;;;;27.33;23.67;;;;;7.31;83.75;98954.91;5046127;28;45435;-84
2023/01/15 07:02:05;;;;;;;;;23.00;20.67;;;;;7.33;83.53;98953.94;5056105;28;45903;-84
2023/01/15 07:04:31;;;;;;;;;23.67;19.00;;;;;7.38;83.27;98952.94;5053656;28;45531;-84
2023/01/15 07:06:56;;;;;;;;;26.00;22.67;;;;;7.43;83.61;98941.41;5088598;27;46809;-83
2023/01/15 07:09:21;;;;;;;;;30.33;26.00;;;;;7.46;84.15;98966.69;5056183;28;45258;-84
2023/01/15 07:11:50;;;;;;;;;28.33;24.33;;;;;7.47;84.04;98964.03;5056427;28;45313;-84
2023/01/15 07:14:23;;;;;;;;;29.33;27.67;;;;;7.51;84.14;98965.66;5052975;28;45566;-85
2023/01/15 07:16:49;;;;;;;;;27.67;25.00;;;;;7.53;84.25;98983.97;5053253;28;47415;-85
2023/01/15 07:19:15;;;;;;;;;31.00;27.33;;;;;7.56;84.50;98997.84;5045608;28;45383;-85
2023/01/15 07:21:41;;;;;;;;;28.67;24.33;;;;;7.57;84.72;98977.72;5055453;28;45375;-75
2023/01/15 07:24:07;;;;;;;;;29.67;26.67;;;;;7.64;84.48;98992.38;5052979;28;45452;-75
2023/01/15 07:26:33;;;;;;;;;23.33;22.67;;;;;7.70;84.40;98995.69;5054101;28;47831;-74
2023/01/15 07:29:02;;;;;;;;;31.00;24.67;;;;;7.77;84.20;98959.59;5078305;27;45398;-75
2023/01/15 07:31:28;;;;;;;;;24.33;19.00;;;;;7.81;84.18;98969.09;5087059;27;45710;-74
2023/01/15 07:33:57;;;;;;;;;23.00;23.00;;;;;7.86;84.17;98935.69;5093242;27;45502;-74
2023/01/15 07:36:23;;;;;;;;;30.67;28.33;;;;;7.89;84.09;98937.34;5092739;27;45487;-74
2023/01/15 07:38:49;;;;;;;;;29.33;25.67;;;;;7.91;84.07;98949.50;5093837;27;45576;-74
2023/01/15 07:49:44;;;;;;;;;32.00;26.67;;;;;8.04;83.75;98952.63;5093643;27;45460;-74
2023/01/15 07:52:13;;;;;;;;;35.00;30.67;;;;;8.03;83.56;98964.03;5076277;27;45431;-75
2023/01/15 07:54:39;;;;;;;;;28.67;26.00;;;;;8.04;83.00;98937.69;5093859;27;45389;-75
2023/01/15 07:57:06;;;;;;;;;31.00;28.67;;;;;8.04;83.08;98953.44;5094704;27;45562;-74
2023/01/15 07:59:31;;;;;;;;;30.00;27.00;;;;;8.07;82.58;98952.50;5081972;27;45472;-74
2023/01/15 08:01:56;;;;;;;;;31.33;29.67;;;;;8.10;82.32;98946.28;5094782;27;45649;-74
2023/01/15 08:04:23;;;;;;;;;29.00;27.33;;;;;8.14;82.24;98948.78;5093812;27;45471;-75
2023/01/15 08:06:49;;;;;;;;;36.00;30.33;;;;;8.18;82.19;98933.78;5092786;27;46335;-74
2023/01/15 08:09:14;;;;;;;;;28.00;28.00;;;;;8.19;82.05;98931.09;5094624;27;45297;-74
2023/01/15 08:17:07;;;;;;;;;32.67;29.67;;;;;8.20;81.68;98942.47;5088422;27;45751;-73
2023/01/15 08:19:33;;;;;;;;;30.67;28.33;;;;;8.23;81.96;98937.09;5089556;27;45298;-73
2023/01/15 08:22:00;;;;;;;;;29.33;26.00;;;;;8.26;81.64;98927.34;5093906;27;45856;-75
2023/01/15 08:24:26;;;;;;;;;32.67;26.00;;;;;8.33;81.46;98912.28;5091703;27;45525;-74
2023/01/15 08:26:51;;;;;;;;;31.00;27.33;;;;;8.38;81.14;98920.84;5093847;27;46202;-74
2023/01/15 08:29:17;;;;;;;;;53.00;43.00;;;;;8.44;80.87;98914.53;5081750;27;45491;-74
2023/01/15 08:31:43;;;;;;;;;31.67;27.00;;;;;8.47;80.91;98941.56;5094408;27;45375;-74
2023/01/15 08:34:09;;;;;;;;;30.33;26.00;;;;;8.53;80.42;98930.84;5093760;27;45400;-74
2023/01/15 08:36:34;;;;;;;;;37.00;27.00;;;;;8.58;80.18;98910.50;5092825;27;45387;-74
2023/01/15 08:39:00;;;;;;;;;29.33;26.67;;;;;8.65;79.95;98906.75;5091048;27;45454;-74
2023/01/15 08:41:26;;;;;;;;;23.67;20.33;;;;;8.70;80.19;98904.84;5094128;27;45447;-73
2023/01/15 08:43:51;;;;;;;;;27.33;26.67;;;;;8.73;79.30;98885.44;5089459;27;45411;-74
2023/01/15 08:46:17;;;;;;;;;28.67;25.67;;;;;8.77;79.42;98889.69;5093037;27;45504;-74
2023/01/15 08:48:43;;;;;;;;;30.67;27.00;;;;;8.83;79.11;98883.34;5091664;27;45802;-74
2023/01/15 08:51:10;;;;;;;;;32.67;28.00;;;;;8.90;79.30;98882.19;5082448;27;45352;-73
2023/01/15 08:53:37;;;;;;;;;28.67;26.00;;;;;8.98;78.97;98874.88;5091731;27;45435;-74
2023/01/15 08:56:03;;;;;;;;;35.67;31.67;;;;;9.03;78.83;98894.00;5075802;27;46179;-73
2023/01/15 08:58:30;;;;;;;;;31.67;28.67;;;;;9.06;77.85;98892.06;5112697;27;45352;-74
2023/01/15 09:01:04;;;;;;;;;35.33;32.00;;;;;9.09;77.89;98904.25;5075586;27;45416;-74
2023/01/15 09:03:29;;;;;;;;;32.67;30.33;;;;;9.06;77.14;98921.00;5090327;27;45388;-74
2023/01/15 09:05:58;;;;;;;;;33.33;26.33;;;;;8.99;77.30;98932.69;5093080;27;45412;-74
2023/01/15 09:08:24;;;;;;;;;28.67;22.67;;;;;8.89;76.91;98914.66;5091212;27;45242;-74
2023/01/15 09:10:49;;;;;;;;;29.67;23.67;;;;;8.84;77.54;98922.72;5093704;27;45474;-74
2023/01/15 09:13:14;;;;;;;;;24.00;22.33;;;;;8.81;78.17;98919.34;5088753;27;45591;-74
2023/01/15 09:15:40;;;;;;;;;22.50;20.50;;;;;8.77;78.39;98908.06;5093411;27;46085;-74
2023/01/15 09:18:05;;;;;;;;;27.00;27.00;;;;;8.78;77.93;98909.78;5090132;27;45495;-74
2023/01/15 09:20:31;;;;;;;;;24.00;21.33;;;;;8.80;78.63;98897.47;5093752;27;45308;-74
2023/01/15 09:22:56;;;;;;;;;23.00;22.33;;;;;8.85;78.91;98899.94;5092613;27;45404;-74
2023/01/15 09:25:22;;;;;;;;;29.33;26.33;;;;;8.91;79.01;98900.53;5081764;27;47025;-74
2023/01/15 09:27:48;;;;;;;;;21.00;21.00;;;;;8.90;77.89;98882.19;5094558;27;45428;-73
2023/01/15 09:30:19;;;;;;;;;32.00;25.33;;;;;8.85;78.46;98900.78;5097797;27;45483;-74
2023/01/15 09:32:45;;;;;;;;;18.00;15.33;;;;;8.84;78.82;98904.31;5084719;27;45543;-73
2023/01/15 09:35:11;;;;;;;;;21.00;19.67;;;;;8.83;78.43;98922.78;5097649;27;46239;-73
2023/01/15 09:37:36;;;;;;;;;20.33;18.00;;;;;8.80;78.56;98896.59;5088320;27;45609;-76
2023/01/15 09:40:05;;;;;;;;;11.50;7.50;;;;;8.83;78.40;98981.47;5093376;27;45489;-74
2023/01/15 09:42:33;;;;;;;;;13.75;10.75;;;;;9.06;76.97;99001.66;5096585;27;45467;-75
2023/01/15 09:45:17;;;;;;;;;14.25;11.50;;;;;9.28;75.28;98992.09;5097440;27;45379;-73
2023/01/15 09:48:01;;;;;;;;;12.33;12.00;;;;;9.59;72.56;99019.88;5088800;27;45431;-76
2023/01/15 09:50:44;;;;;;;;;5.25;3.50;;;;;9.92;70.78;98979.09;5099670;27;45513;-72
2023/01/15 09:53:23;;;;;;;;;13.25;12.50;;;;;10.13;70.24;98951.88;5096845;27;45523;-73
2023/01/15 09:55:49;;;;;;;;;7.50;5.75;;;;;10.21;71.68;99037.69;5090054;27;45564;-81
2023/01/15 09:58:18;;;;;;;;;2.75;2.75;;;;;10.20;72.00;99034.22;5094879;27;45360;-78
2023/01/15 10:00:49;;;;;;;;;10.00;8.75;;;;;10.07;73.91;99070.66;5098014;27;45491;-72
2023/01/15 10:03:38;;;;;;;;;7.50;5.25;;;;;9.88;76.80;99067.03;5094959;27;45422;-78
2023/01/15 10:06:15;;;;;;;;;11.50;8.75;;;;;9.58;79.32;99155.88;5097310;27;45565;-75
2023/01/15 10:08:45;;;;;;;;;3.50;3.50;;;;;9.41;77.02;99103.84;5096371;27;45425;-74
2023/01/15 10:11:13;;;;;;;;;4.75;4.50;;;;;9.30;77.92;99106.00;5097162;27;45409;-73
2023/01/15 10:13:54;;;;;;;;;1.50;0.75;;;;;9.20;78.36;99103.75;5071386;27;45658;-74
2023/01/15 10:16:26;;;;;;;;;2.75;2.00;;;;;9.21;76.75;99108.13;5091116;27;45509;-75
2023/01/15 10:18:53;;;;;;;;;2.00;1.00;;;;;9.24;75.27;99044.84;5088102;27;45440;-75
2023/01/15 10:22:15;;;;;;;;;1.00;1.00;;;;;9.31;73.78;99099.84;5097027;27;45466;-74
2023/01/15 10:24:55;;;;;;;;;0.00;0.00;;;;;9.37;72.07;99136.47;5018781;28;45910;-79
2023/01/15 10:27:23;;;;;;;;;0.00;0.00;;;;;9.36;69.80;99131.25;5031586;28;45583;-74
2023/01/15 10:29:55;;;;;;;;;0.00;0.00;;;;;9.42;69.87;99110.81;5064612;27;45552;-72
2023/01/15 10:32:23;;;;;;;;;0.00;0.00;;;;;9.50;69.49;99101.81;5082520;27;45584;-74
2023/01/15 10:35:13;;;;;;;;;0.00;0.00;;;;;9.53;69.29;99115.72;5090230;27;45587;-75
2023/01/15 10:37:46;;;;;;;;;0.50;0.00;;;;;9.55;67.49;99129.66;5093241;27;45676;-79
2023/01/15 10:40:14;;;;;;;;;0.00;0.00;;;;;9.57;67.05;99169.09;5095026;27;45435;-89
2023/01/15 10:43:17;;;;;;;;;0.00;0.00;;;;;9.61;67.25;99099.63;5097373;27;45222;-78
2023/01/15 10:45:46;;;;;;;;;0.00;0.00;;;;;9.65;66.89;99135.47;5085262;27;45694;-81
2023/01/15 10:48:14;;;;;;;;;0.00;0.00;;;;;9.61;68.40;99111.03;5094966;27;45513;-76
2023/01/15 10:50:41;;;;;;;;;0.00;0.00;;;;;9.55;67.97;99140.19;5097143;27;45494;-77
2023/01/15 10:53:07;;;;;;;;;0.00;0.00;;;;;9.49;68.40;99158.84;5093833;27;45616;-77
2023/01/15 10:55:53;;;;;;;;;0.00;0.00;;;;;9.47;67.83;99157.19;5077871;27;45555;-76
2023/01/15 10:58:40;;;;;;;;;0.00;0.00;;;;;9.39;68.13;99171.44;5094631;27;45484;-75
2023/01/15 11:01:18;;;;;;;;;0.00;0.00;;;;;9.34;68.23;99141.81;5095820;27;45369;-74
2023/01/15 11:03:44;;;;;;;;;0.00;0.00;;;;;9.30;67.80;99132.31;5078832;27;45432;-73
2023/01/15 11:06:15;;;;;;;;;0.00;0.00;;;;;9.28;66.67;99173.59;5066347;27;45518;-79
2023/01/15 11:08:49;;;;;;;;;0.00;0.00;;;;;9.26;66.77;99137.72;5091669;27;47039;-77
2023/01/15 11:19:42;;;;;;;;;0.00;0.00;;;;;8.80;72.94;99173.44;5094737;27;46136;-77
2023/01/15 11:22:17;;;;;;;;;0.00;0.00;;;;;8.71;73.74;99171.13;5095399;27;45468;-78
2023/01/15 11:24:49;;;;;;;;;0.00;0.00;;;;;8.69;71.00;99180.81;5095689;27;45535;-76
2023/01/15 11:27:19;;;;;;;;;0.00;0.00;;;;;8.69;74.64;99222.88;5095477;27;45441;-78
2023/01/15 11:29:49;;;;;;;;;0.00;0.00;;;;;8.59;76.63;99224.03;5088261;27;46324;-79
2023/01/15 11:32:28;;;;;;;;;0.40;0.00;;;;;8.47;77.92;99206.91;5095459;27;45302;-80
2023/01/15 11:35:15;;;;;;;;;1.00;0.00;;;;;8.38;78.43;99217.66;5085923;27;45584;-75
2023/01/15 11:37:41;;;;;;;;;0.00;0.00;;;;;8.29;78.43;99217.91;5092480;27;45425;-77
2023/01/15 11:40:22;;;;;;;;;0.00;0.00;;;;;8.17;80.32;99219.13;5092663;27;45525;-77
2023/01/15 11:51:07;;;;;;;;;0.00;0.00;;;;;7.80;82.17;99240.31;5095122;27;45889;-83
2023/01/15 11:53:39;;;;;;;;;0.00;0.00;;;;;7.77;82.69;99226.41;5094810;27;45465;-77
2023/01/15 11:56:10;;;;;;;;;0.00;0.00;;;;;7.73;82.73;99223.00;5096274;27;45426;-80
2023/01/15 11:58:46;;;;;;;;;0.00;0.00;;;;;7.68;83.96;99228.38;5096052;27;45534;-81
2023/01/15 12:01:26;;;;;;;;;0.00;0.00;;;;;7.67;83.06;99221.41;5098020;27;45386;-76
2023/01/15 12:03:53;;;;;;;;;0.00;0.00;;;;;7.65;83.80;99225.84;5095245;27;45353;-74
2023/01/15 12:06:20;;;;;;;;;0.25;0.25;;;;;7.64;85.08;99224.09;5100046;27;45514;-67
2023/01/15 12:08:50;;;;;;;;;0.00;0.00;;;;;7.61;84.56;99229.44;5093328;27;45507;-67
2023/01/15 12:11:45;;;;;;;;;0.00;0.00;;;;;7.59;84.01;99220.75;5092305;27;45297;-67
2023/01/15 12:14:40;;;;;;;;;0.00;0.00;;;;;7.56;84.26;99231.31;5088556;27;45582;-68
2023/01/15 12:17:09;;;;;;;;;1.00;0.00;;;;;7.55;84.28;99210.34;5093409;27;45444;-68
2023/01/15 12:19:46;;;;;;;;;0.00;0.00;;;;;7.54;84.11;99204.25;5075479;27;45418;-69
2023/01/15 12:22:38;;;;;;;;;0.00;0.00;;;;;7.54;83.97;99196.38;5094053;27;46338;-69
2023/01/15 12:25:18;;;;;;;;;0.00;0.00;;;;;7.53;83.23;99192.06;5092349;27;45442;-68
2023/01/15 12:27:48;;;;;;;;;1.00;0.00;;;;;7.52;82.65;99199.97;5085872;27;45454;-72